Time;durP1;ratioP1;P1;durP2;ratioP2;P2;SDS_P1;SDS_P2;PMS_P1;PMS_P2;Temp;Humidity;BMP_temperature;BMP_pressure;BME280_temperature;BME280_humidity;BME280_pressure;Samples;Min_cycle;Max_cycle;Signal;HPM_P1;HPM_P2
2023/05/19 00:01:37;;;;;;;;;;;;;;;;;;5111325;28;20006;-67
2023/05/19 00:04:04;;;;;;;;;;;;;;;;;;5111629;28;20007;-67
2023/05/19 00:06:33;;;;;;;;;;;;;;;;;;5111711;28;20386;-67
2023/05/19 00:08:59;;;;;;;;;;;;;;;;;;5111552;28;19915;-67
2023/05/19 00:11:25;;;;;;;;;;;;;;;;;;5111804;28;19908;-67
2023/05/19 00:13:51;;;;;;;;;;;;;;;;;;5111514;28;20274;-68
2023/05/19 00:16:17;;;;;;;;;;;;;;;;;;5111005;28;19934;-67
2023/05/19 00:18:43;;;;;;;;;;;;;;;;;;5111559;28;20288;-67
2023/05/19 00:21:09;;;;;;;;;;;;;;;;;;5111280;28;19912;-67
2023/05/19 00:23:35;;;;;;;;;;;;;;;;;;5111099;28;20352;-67
2023/05/19 00:26:01;;;;;;;;;;;;;;;;;;5111281;28;19908;-67
2023/05/19 00:28:27;;;;;;;;;;;;;;;;;;5111223;28;19908;-68
2023/05/19 00:30:53;;;;;;;;;;;;;;;;;;5109467;28;19915;-67
2023/05/19 00:33:19;;;;;;;;;;;;;;;;;;5109853;28;19919;-68
2023/05/19 00:35:45;;;;;;;;;;;;;;;;;;5110949;28;19908;-67
2023/05/19 00:38:11;;;;;;;;;;;;;;;;;;5110605;28;19916;-67
2023/05/19 00:40:37;;;;;;;;;;;;;;;;;;5110995;28;19907;-67
2023/05/19 00:43:04;;;;;;;;;;;;;;;;;;5110954;28;20267;-67
2023/05/19 00:45:30;;;;;;;;;;;;;;;;;;5110610;28;19908;-67
2023/05/19 00:47:56;;;;;;;;;;;;;;;;;;5110794;28;19943;-68
2023/05/19 00:50:27;;;;;;;;;;;;;;;;;;5111150;28;19916;-68
2023/05/19 00:52:53;;;;;;;;;;;;;;;;;;5110385;28;19908;-68
2023/05/19 00:55:18;;;;;;;;;;;;;;;;;;5110742;28;20022;-67
2023/05/19 00:57:44;;;;;;;;;;;;;;;;;;5110012;28;19970;-67
2023/05/19 01:00:11;;;;;;;;;;;;;;;;;;5110573;28;19915;-67
2023/05/19 01:02:38;;;;;;;;;;;;;;;;;;5110599;28;19989;-67
2023/05/19 01:05:05;;;;;;;;;;;;;;;;;;5110205;28;19989;-67
2023/05/19 01:07:31;;;;;;;;;;;;;;;;;;5110501;28;19984;-67
2023/05/19 01:09:57;;;;;;;;;;;;;;;;;;5100007;28;19912;-68
2023/05/19 01:12:23;;;;;;;;;;;;;;;;;;5096609;28;19908;-68
2023/05/19 01:14:49;;;;;;;;;;;;;;;;;;5096921;28;19916;-68
2023/05/19 01:17:15;;;;;;;;;;;;;;;;;;5096740;28;20015;-68
2023/05/19 01:19:41;;;;;;;;;;;;;;;;;;5096260;28;19912;-67
2023/05/19 01:22:11;;;;;;;;;;;;;;;;;;5096657;28;20269;-68
2023/05/19 01:24:38;;;;;;;;;;;;;;;;;;5096930;28;19908;-67
2023/05/19 01:27:03;;;;;;;;;;;;;;;;;;5096266;28;19908;-67
2023/05/19 01:29:29;;;;;;;;;;;;;;;;;;5097109;28;20432;-67
2023/05/19 01:31:55;;;;;;;;;;;;;;;;;;5096453;28;20332;-67
2023/05/19 01:34:23;;;;;;;;;;;;;;;;;;5094736;28;19915;-67
2023/05/19 01:36:49;;;;;;;;;;;;;;;;;;5096253;28;19909;-67
2023/05/19 01:39:15;;;;;;;;;;;;;;;;;;5096249;28;19912;-68
2023/05/19 01:41:40;;;;;;;;;;;;;;;;;;5095822;28;19908;-68
2023/05/19 01:44:06;;;;;;;;;;;;;;;;;;5096161;28;19915;-67
2023/05/19 01:46:32;;;;;;;;;;;;;;;;;;5096135;28;19908;-67
2023/05/19 01:48:58;;;;;;;;;;;;;;;;;;5095698;28;19908;-68
2023/05/19 01:51:24;;;;;;;;;;;;;;;;;;5096011;28;20003;-68
2023/05/19 01:53:50;;;;;;;;;;;;;;;;;;5095576;28;19908;-68
2023/05/19 01:56:16;;;;;;;;;;;;;;;;;;5095950;28;19915;-67
2023/05/19 01:58:42;;;;;;;;;;;;;;;;;;5095729;28;20398;-68
2023/05/19 02:01:08;;;;;;;;;;;;;;;;;;5094184;28;19908;-67
2023/05/19 02:03:34;;;;;;;;;;;;;;;;;;5095807;28;19909;-68
2023/05/19 02:06:00;;;;;;;;;;;;;;;;;;5095832;28;19939;-67
2023/05/19 02:08:26;;;;;;;;;;;;;;;;;;5095403;28;19917;-67
2023/05/19 02:10:52;;;;;;;;;;;;;;;;;;5095704;28;20395;-68
2023/05/19 02:13:18;;;;;;;;;;;;;;;;;;5094380;28;19908;-68
2023/05/19 02:15:44;;;;;;;;;;;;;;;;;;5095149;28;19908;-68
2023/05/19 02:18:10;;;;;;;;;;;;;;;;;;5095974;28;19924;-68
2023/05/19 02:20:37;;;;;;;;;;;;;;;;;;5095062;28;19908;-68
2023/05/19 02:23:03;;;;;;;;;;;;;;;;;;5095044;28;20448;-69
2023/05/19 02:25:29;;;;;;;;;;;;;;;;;;5095616;28;19939;-68
2023/05/19 02:27:55;;;;;;;;;;;;;;;;;;5095483;28;19912;-68
2023/05/19 02:30:20;;;;;;;;;;;;;;;;;;5094839;28;20428;-68
2023/05/19 02:32:46;;;;;;;;;;;;;;;;;;5095314;28;20421;-68
2023/05/19 02:35:12;;;;;;;;;;;;;;;;;;5095195;28;19915;-68
2023/05/19 02:37:38;;;;;;;;;;;;;;;;;;5094747;28;19916;-68
2023/05/19 02:40:04;;;;;;;;;;;;;;;;;;5095109;28;19908;-68
2023/05/19 02:42:30;;;;;;;;;;;;;;;;;;5095307;28;19908;-68
2023/05/19 02:44:56;;;;;;;;;;;;;;;;;;5094700;28;19912;-68
2023/05/19 02:47:22;;;;;;;;;;;;;;;;;;5095047;28;19961;-68
2023/05/19 02:49:48;;;;;;;;;;;;;;;;;;5095127;28;19908;-68
2023/05/19 02:52:14;;;;;;;;;;;;;;;;;;5094541;28;19943;-68
2023/05/19 02:54:40;;;;;;;;;;;;;;;;;;5094865;28;19912;-68
2023/05/19 02:57:06;;;;;;;;;;;;;;;;;;5095186;28;19920;-68
2023/05/19 02:59:32;;;;;;;;;;;;;;;;;;5095127;28;19935;-68
2023/05/19 03:01:58;;;;;;;;;;;;;;;;;;5094698;28;19904;-68
2023/05/19 03:04:24;;;;;;;;;;;;;;;;;;5094319;28;19915;-68
2023/05/19 03:06:50;;;;;;;;;;;;;;;;;;5094650;28;19911;-68
2023/05/19 03:09:16;;;;;;;;;;;;;;;;;;5094621;28;20268;-68
2023/05/19 03:11:42;;;;;;;;;;;;;;;;;;5094186;28;19908;-68
2023/05/19 03:14:08;;;;;;;;;;;;;;;;;;5094530;28;19992;-68
2023/05/19 03:16:34;;;;;;;;;;;;;;;;;;5094592;28;19987;-68
2023/05/19 03:19:00;;;;;;;;;;;;;;;;;;5093967;28;20357;-68
2023/05/19 03:21:26;;;;;;;;;;;;;;;;;;5094380;28;20326;-68
2023/05/19 03:23:53;;;;;;;;;;;;;;;;;;5094386;28;19912;-68
2023/05/19 03:26:19;;;;;;;;;;;;;;;;;;5093936;28;19958;-68
2023/05/19 03:28:45;;;;;;;;;;;;;;;;;;5094265;28;20322;-68
2023/05/19 03:31:12;;;;;;;;;;;;;;;;;;5094252;28;20268;-68
2023/05/19 03:33:38;;;;;;;;;;;;;;;;;;5093828;28;19918;-68
2023/05/19 03:36:04;;;;;;;;;;;;;;;;;;5092839;28;19908;-68
2023/05/19 03:38:30;;;;;;;;;;;;;;;;;;5094077;28;20015;-68
2023/05/19 03:40:56;;;;;;;;;;;;;;;;;;5092393;28;19931;-68
2023/05/19 03:43:21;;;;;;;;;;;;;;;;;;5094236;28;19909;-68
2023/05/19 03:45:47;;;;;;;;;;;;;;;;;;5094236;28;19916;-68
2023/05/19 03:48:14;;;;;;;;;;;;;;;;;;5093608;28;19908;-68
2023/05/19 03:50:41;;;;;;;;;;;;;;;;;;5093980;28;19909;-68
2023/05/19 03:53:07;;;;;;;;;;;;;;;;;;5093939;28;19915;-68
2023/05/19 03:55:33;;;;;;;;;;;;;;;;;;5093485;28;19908;-68
2023/05/19 03:57:59;;;;;;;;;;;;;;;;;;5093594;28;19930;-68
2023/05/19 04:00:25;;;;;;;;;;;;;;;;;;5093853;28;19915;-68
2023/05/19 04:02:51;;;;;;;;;;;;;;;;;;5093844;28;19961;-68
2023/05/19 04:05:17;;;;;;;;;;;;;;;;;;5092547;28;20330;-68
2023/05/19 04:07:45;;;;;;;;;;;;;;;;;;5093420;28;19909;-68
2023/05/19 04:10:11;;;;;;;;;;;;;;;;;;5093926;28;19908;-68
2023/05/19 04:12:37;;;;;;;;;;;;;;;;;;5093855;28;19908;-68
2023/05/19 04:15:04;;;;;;;;;;;;;;;;;;5093309;28;19908;-68
2023/05/19 04:22:59;;;;;;;;;;;;;;;;;;5093315;28;19965;-67
2023/05/19 04:25:27;;;;;;;;;;;;;;;;;;5093881;28;19999;-67
2023/05/19 04:27:56;;;;;;;;;;;;;;;;;;5093989;28;20256;-67
2023/05/19 04:30:22;;;;;;;;;;;;;;;;;;5093212;28;19908;-68
2023/05/19 04:32:49;;;;;;;;;;;;;;;;;;5093600;28;19961;-68
2023/05/19 04:35:16;;;;;;;;;;;;;;;;;;5093661;28;19908;-68
2023/05/19 04:37:44;;;;;;;;;;;;;;;;;;5093112;28;20049;-67
2023/05/19 04:40:11;;;;;;;;;;;;;;;;;;5093556;28;20360;-68
2023/05/19 04:42:40;;;;;;;;;;;;;;;;;;5093205;28;19947;-67
2023/05/19 04:47:09;;;;;;;;;;;;;;;;;;5110442;27;19916;-67
2023/05/19 04:49:38;;;;;;;;;;;;;;;;;;5110053;28;19965;-67
2023/05/19 04:52:05;;;;;;;;;;;;;;;;;;5110073;28;20280;-67
2023/05/19 04:54:31;;;;;;;;;;;;;;;;;;5111568;28;19908;-69
2023/05/19 04:56:57;;;;;;;;;;;;;;;;;;5111211;28;19953;-68
2023/05/19 04:59:58;;;;;;;;;;;;;;;;;;5092154;27;19922;-67
2023/05/19 05:02:26;;;;;;;;;;;;;;;;;;5089908;28;20300;-68
2023/05/19 05:04:53;;;;;;;;;;;;;;;;;;5090997;28;20296;-68
2023/05/19 05:07:19;;;;;;;;;;;;;;;;;;5089618;28;19909;-67
2023/05/19 05:09:45;;;;;;;;;;;;;;;;;;5090206;28;20399;-69
2023/05/19 05:12:11;;;;;;;;;;;;;;;;;;5090042;28;19923;-68
2023/05/19 05:14:38;;;;;;;;;;;;;;;;;;5090321;28;19915;-68
2023/05/19 05:17:15;;;;;;;;;;;;;;;;;;5090608;27;19916;-68
2023/05/19 05:19:41;;;;;;;;;;;;;;;;;;5090210;28;19971;-68
2023/05/19 05:23:53;;;;;;;;;;;;;;;;;;5092174;28;19917;-68
2023/05/19 05:27:10;;;;;;;;;;;;;;;;;;5091450;27;19922;-67
2023/05/19 05:29:36;;;;;;;;;;;;;;;;;;5090004;28;20003;-68
2023/05/19 05:32:02;;;;;;;;;;;;;;;;;;5090865;28;19915;-68
2023/05/19 05:34:28;;;;;;;;;;;;;;;;;;5091141;28;19915;-68
2023/05/19 05:36:54;;;;;;;;;;;;;;;;;;5091580;28;20360;-67
2023/05/19 05:39:20;;;;;;;;;;;;;;;;;;5091154;28;19912;-68
2023/05/19 05:41:46;;;;;;;;;;;;;;;;;;5090921;28;19908;-68
2023/05/19 05:44:11;;;;;;;;;;;;;;;;;;5090442;28;19961;-67
2023/05/19 05:46:37;;;;;;;;;;;;;;;;;;5080149;28;20053;-67
2023/05/19 05:51:32;;;;;;;;;;;;;;;;;;5119685;27;19912;-68
2023/05/19 05:53:58;;;;;;;;;;;;;;;;;;5091571;28;19954;-68
2023/05/19 05:56:25;;;;;;;;;;;;;;;;;;5110535;28;20284;-67
2023/05/19 06:00:52;;;;;;;;;;;;;;;;;;5108775;27;19928;-66
2023/05/19 06:03:23;;;;;;;;;;;;;;;;;;5109795;28;20349;-66
2023/05/19 06:07:56;;;;;;;;;;;;;;;;;;5089614;27;19938;-67
2023/05/19 06:10:22;;;;;;;;;;;;;;;;;;5090031;28;19912;-67
2023/05/19 06:12:48;;;;;;;;;;;;;;;;;;5088603;28;20323;-67
2023/05/19 06:18:05;;;;;;;;;;;;;;;;;;5068511;28;19988;-67
2023/05/19 06:28:56;;;;;;;;;;;;;;;;;;5088571;27;19925;-67
2023/05/19 06:31:25;;;;;;;;;;;;;;;;;;5070580;28;19919;-67
2023/05/19 06:34:30;;;;;;;;;;;;;;;;;;5117995;27;19923;-67
2023/05/19 06:40:00;;;;;;;;;;;;;;;;;;5131831;27;20018;-66
2023/05/19 06:43:06;;;;;;;;;;;;;;;;;;5090197;27;19916;-69
2023/05/19 06:45:31;;;;;;;;;;;;;;;;;;5088616;28;19999;-68
2023/05/19 06:47:57;;;;;;;;;;;;;;;;;;5088074;28;19912;-66
2023/05/19 06:50:24;;;;;;;;;;;;;;;;;;5088323;28;19951;-67
2023/05/19 06:53:21;;;;;;;;;;;;;;;;;;5090110;27;19938;-68
2023/05/19 06:58:39;;;;;;;;;;;;;;;;;;5090744;27;19923;-67
2023/05/19 07:06:46;;;;;;;;;;;;;;;;;;5111218;27;19916;-67
2023/05/19 07:09:21;;;;;;;;;;;;;;;;;;5111313;27;19916;-67
2023/05/19 07:14:20;;;;;;;;;;;;;;;;;;5093596;27;19924;-68
2023/05/19 07:16:46;;;;;;;;;;;;;;;;;;5089671;28;19912;-67
2023/05/19 07:20:16;;;;;;;;;;;;;;;;;;5088142;27;19920;-67
2023/05/19 07:22:42;;;;;;;;;;;;;;;;;;5069584;28;19912;-67
2023/05/19 07:28:12;;;;;;;;;;;;;;;;;;5053232;28;19925;-69
2023/05/19 07:30:37;;;;;;;;;;;;;;;;;;5050474;28;20366;-69
2023/05/19 07:33:03;;;;;;;;;;;;;;;;;;5047643;28;19909;-69
2023/05/19 07:35:29;;;;;;;;;;;;;;;;;;5030524;28;19913;-68
2023/05/19 07:39:34;;;;;;;;;;;;;;;;;;5131613;27;20390;-67
2023/05/19 07:42:30;;;;;;;;;;;;;;;;;;5173056;27;19912;-67
2023/05/19 07:48:54;;;;;;;;;;;;;;;;;;5088907;27;19919;-67
2023/05/19 07:51:52;;;;;;;;;;;;;;;;;;5079320;27;19921;-66
2023/05/19 07:56:12;;;;;;;;;;;;;;;;;;5085375;27;19922;-66
2023/05/19 07:58:38;;;;;;;;;;;;;;;;;;5076702;28;19924;-67
2023/05/19 08:05:22;;;;;;;;;;;;;;;;;;5144212;27;19912;-67
2023/05/19 08:08:32;;;;;;;;;;;;;;;;;;5065302;28;19917;-67
2023/05/19 08:10:58;;;;;;;;;;;;;;;;;;5066261;28;19956;-67
2023/05/19 08:14:57;;;;;;;;;;;;;;;;;;5033032;27;2354229;-67
2023/05/19 08:17:23;;;;;;;;;;;;;;;;;;5105406;28;19975;-67
2023/05/19 08:19:49;;;;;;;;;;;;;;;;;;5109085;28;20400;-67
2023/05/19 08:23:05;;;;;;;;;;;;;;;;;;5089132;27;19913;-68
2023/05/19 08:28:32;;;;;;;;;;;;;;;;;;5142798;27;19912;-67
2023/05/19 08:32:42;;;;;;;;;;;;;;;;;;5085020;27;20284;-67
2023/05/19 08:35:08;;;;;;;;;;;;;;;;;;5086255;28;19918;-66
2023/05/19 08:37:36;;;;;;;;;;;;;;;;;;5088000;28;19908;-67
2023/05/19 08:40:39;;;;;;;;;;;;;;;;;;5108333;27;20299;-67
2023/05/19 08:45:15;;;;;;;;;;;;;;;;;;5137152;27;19920;-67
2023/05/19 08:49:51;;;;;;;;;;;;;;;;;;5107059;27;20521;-70
2023/05/19 08:54:19;;;;;;;;;;;;;;;;;;5087536;27;20307;-69
2023/05/19 08:58:45;;;;;;;;;;;;;;;;;;5066078;27;19921;-66
2023/05/19 09:01:11;;;;;;;;;;;;;;;;;;5057778;28;19932;-66
2023/05/19 09:08:41;;;;;;;;;;;;;;;;;;4961171;27;2725675;-66
2023/05/19 09:12:28;;;;;;;;;;;;;;;;;;5047255;27;2369460;-66
2023/05/19 09:14:55;;;;;;;;;;;;;;;;;;5129863;28;19912;-66
2023/05/19 09:17:21;;;;;;;;;;;;;;;;;;5127100;28;19941;-65
2023/05/19 09:19:48;;;;;;;;;;;;;;;;;;5107448;28;20325;-65
2023/05/19 09:22:14;;;;;;;;;;;;;;;;;;5125246;28;19981;-64
2023/05/19 09:24:40;;;;;;;;;;;;;;;;;;5124876;28;19961;-65
2023/05/19 09:27:06;;;;;;;;;;;;;;;;;;5113731;28;20267;-65
2023/05/19 09:31:17;;;;;;;;;;;;;;;;;;5084657;27;20629;-64
2023/05/19 09:33:44;;;;;;;;;;;;;;;;;;5084077;28;19916;-64
2023/05/19 09:36:10;;;;;;;;;;;;;;;;;;5084561;28;19927;-65
2023/05/19 09:38:36;;;;;;;;;;;;;;;;;;5085200;28;20376;-65
2023/05/19 09:41:02;;;;;;;;;;;;;;;;;;5087847;28;19912;-65
2023/05/19 09:45:29;;;;;;;;;;;;;;;;;;5103113;27;19917;-65
2023/05/19 09:47:55;;;;;;;;;;;;;;;;;;5085791;28;19919;-64
2023/05/19 09:51:51;;;;;;;;;;;;;;;;;;5107985;27;19919;-65
2023/05/19 09:54:17;;;;;;;;;;;;;;;;;;5108720;28;20407;-65
2023/05/19 09:59:41;;;;;;;;;;;;;;;;;;5108856;27;19916;-65
2023/05/19 10:02:06;;;;;;;;;;;;;;;;;;5108720;28;19923;-65
2023/05/19 10:04:58;;;;;;;;;;;;;;;;;;5149224;27;20298;-66
2023/05/19 10:09:52;;;;;;;;;;;;;;;;;;5108716;27;19920;-65
2023/05/19 10:15:44;;;;;;;;;;;;;;;;;;5106750;27;19919;-67
2023/05/19 10:18:10;;;;;;;;;;;;;;;;;;5092297;28;19956;-66
2023/05/19 10:20:36;;;;;;;;;;;;;;;;;;5090774;28;20356;-65
2023/05/19 10:23:02;;;;;;;;;;;;;;;;;;5091000;28;20326;-65
2023/05/19 10:25:28;;;;;;;;;;;;;;;;;;5090956;28;19920;-65
2023/05/19 10:27:54;;;;;;;;;;;;;;;;;;5090441;28;19915;-65
2023/05/19 10:30:20;;;;;;;;;;;;;;;;;;5089625;28;19908;-65
2023/05/19 10:32:47;;;;;;;;;;;;;;;;;;5090743;28;20386;-65
2023/05/19 10:44:17;;;;;;;;;;;;;;;;;;5091801;27;19922;-66
2023/05/19 10:47:48;;;;;;;;;;;;;;;;;;5111977;27;19916;-67
2023/05/19 10:50:14;;;;;;;;;;;;;;;;;;5109563;28;19919;-67
2023/05/19 10:52:40;;;;;;;;;;;;;;;;;;5111669;28;19908;-68
2023/05/19 10:55:07;;;;;;;;;;;;;;;;;;5110330;28;19908;-68
2023/05/19 10:57:33;;;;;;;;;;;;;;;;;;5110898;28;19919;-67
2023/05/19 11:00:00;;;;;;;;;;;;;;;;;;5107082;28;19912;-66
2023/05/19 11:09:09;;;;;;;;;;;;;;;;;;5152851;27;20097;-66
2023/05/19 11:11:35;;;;;;;;;;;;;;;;;;5152120;27;19945;-66
2023/05/19 11:14:00;;;;;;;;;;;;;;;;;;5152706;27;19908;-67
2023/05/19 11:16:27;;;;;;;;;;;;;;;;;;5147417;27;19933;-66
2023/05/19 11:18:53;;;;;;;;;;;;;;;;;;5149907;27;20001;-66
2023/05/19 11:21:19;;;;;;;;;;;;;;;;;;5152794;27;19950;-66
2023/05/19 11:23:45;;;;;;;;;;;;;;;;;;5151899;27;19907;-66
2023/05/19 11:26:11;;;;;;;;;;;;;;;;;;5132684;27;19916;-66
2023/05/19 11:28:37;;;;;;;;;;;;;;;;;;5131551;28;20367;-66
2023/05/19 11:31:06;;;;;;;;;;;;;;;;;;5112014;28;19908;-66
2023/05/19 11:33:32;;;;;;;;;;;;;;;;;;5131480;28;20015;-66
2023/05/19 11:35:58;;;;;;;;;;;;;;;;;;5113204;28;19920;-65
2023/05/19 11:38:41;;;;;;;;;;;;;;;;;;5149947;27;19920;-66
2023/05/19 11:41:07;;;;;;;;;;;;;;;;;;5151160;27;20341;-65
2023/05/19 11:43:33;;;;;;;;;;;;;;;;;;5145802;27;19915;-66
2023/05/19 11:45:59;;;;;;;;;;;;;;;;;;5131469;27;19908;-66
2023/05/19 11:48:25;;;;;;;;;;;;;;;;;;5133003;27;20017;-65
2023/05/19 11:50:51;;;;;;;;;;;;;;;;;;5114064;28;19915;-64
2023/05/19 11:53:18;;;;;;;;;;;;;;;;;;5131706;28;20415;-64
2023/05/19 11:55:44;;;;;;;;;;;;;;;;;;5131694;27;19908;-65
2023/05/19 11:58:11;;;;;;;;;;;;;;;;;;5131624;28;19939;-65
2023/05/19 12:00:37;;;;;;;;;;;;;;;;;;5129769;28;19929;-65
2023/05/19 12:03:03;;;;;;;;;;;;;;;;;;5131282;28;19920;-66
2023/05/19 12:05:30;;;;;;;;;;;;;;;;;;5131395;28;19912;-66
2023/05/19 12:07:56;;;;;;;;;;;;;;;;;;5131105;28;19990;-66
2023/05/19 12:10:22;;;;;;;;;;;;;;;;;;5131582;27;20000;-66
2023/05/19 12:12:49;;;;;;;;;;;;;;;;;;5130639;27;19939;-65
2023/05/19 12:15:15;;;;;;;;;;;;;;;;;;5130154;27;19959;-65
2023/05/19 12:17:41;;;;;;;;;;;;;;;;;;5131037;28;19959;-65
2023/05/19 12:20:10;;;;;;;;;;;;;;;;;;5131027;28;19911;-66
2023/05/19 12:22:36;;;;;;;;;;;;;;;;;;5131177;28;19926;-66
2023/05/19 12:25:03;;;;;;;;;;;;;;;;;;5133473;27;19908;-67
2023/05/19 12:27:30;;;;;;;;;;;;;;;;;;5133109;27;19912;-65
2023/05/19 12:29:58;;;;;;;;;;;;;;;;;;5131015;28;19911;-66
2023/05/19 12:32:24;;;;;;;;;;;;;;;;;;5130902;27;19916;-66
2023/05/19 12:34:50;;;;;;;;;;;;;;;;;;5135180;27;19999;-65
2023/05/19 12:37:17;;;;;;;;;;;;;;;;;;5137219;27;20322;-65
2023/05/19 12:39:43;;;;;;;;;;;;;;;;;;5130916;28;19908;-65
2023/05/19 12:42:08;;;;;;;;;;;;;;;;;;5130491;27;19953;-66
2023/05/19 12:44:34;;;;;;;;;;;;;;;;;;5117473;27;19916;-66
2023/05/19 12:47:00;;;;;;;;;;;;;;;;;;5114056;28;19915;-67
2023/05/19 12:49:26;;;;;;;;;;;;;;;;;;5131014;27;19911;-67
2023/05/19 12:51:52;;;;;;;;;;;;;;;;;;5128215;27;19992;-66
2023/05/19 12:54:18;;;;;;;;;;;;;;;;;;5119389;27;19919;-69
2023/05/19 12:56:44;;;;;;;;;;;;;;;;;;5115866;28;19911;-70
2023/05/19 12:59:10;;;;;;;;;;;;;;;;;;5115850;28;19955;-69
2023/05/19 13:01:36;;;;;;;;;;;;;;;;;;5117023;28;19912;-70
2023/05/19 13:04:02;;;;;;;;;;;;;;;;;;5116477;28;20338;-69
2023/05/19 13:06:28;;;;;;;;;;;;;;;;;;5116906;28;20003;-70
2023/05/19 13:08:54;;;;;;;;;;;;;;;;;;5116512;28;19908;-69
2023/05/19 13:11:20;;;;;;;;;;;;;;;;;;5114286;28;20386;-70
2023/05/19 13:13:46;;;;;;;;;;;;;;;;;;5115130;28;20280;-69
2023/05/19 13:16:12;;;;;;;;;;;;;;;;;;5115538;28;19937;-69
2023/05/19 13:18:38;;;;;;;;;;;;;;;;;;5097592;28;19999;-70
2023/05/19 13:21:04;;;;;;;;;;;;;;;;;;5115852;28;20375;-70
2023/05/19 13:23:30;;;;;;;;;;;;;;;;;;5115441;28;19908;-70
2023/05/19 13:25:56;;;;;;;;;;;;;;;;;;5116396;28;20002;-70
2023/05/19 13:28:22;;;;;;;;;;;;;;;;;;5116521;28;19916;-70
2023/05/19 13:30:50;;;;;;;;;;;;;;;;;;5115898;28;19908;-70
2023/05/19 13:33:16;;;;;;;;;;;;;;;;;;5116373;28;19915;-70
2023/05/19 13:35:41;;;;;;;;;;;;;;;;;;5116290;28;19908;-70
2023/05/19 13:38:08;;;;;;;;;;;;;;;;;;5097327;28;19920;-70
2023/05/19 13:40:35;;;;;;;;;;;;;;;;;;5116242;28;19947;-70
2023/05/19 13:43:01;;;;;;;;;;;;;;;;;;5116171;28;19912;-70
2023/05/19 13:45:27;;;;;;;;;;;;;;;;;;5115768;28;19961;-69
2023/05/19 13:47:53;;;;;;;;;;;;;;;;;;5097723;28;19914;-69
2023/05/19 13:50:19;;;;;;;;;;;;;;;;;;5116238;28;19908;-69
2023/05/19 13:52:46;;;;;;;;;;;;;;;;;;5115576;28;19998;-69
2023/05/19 13:55:12;;;;;;;;;;;;;;;;;;5116721;28;20301;-69
2023/05/19 13:57:38;;;;;;;;;;;;;;;;;;5115800;28;19958;-68
2023/05/19 14:00:04;;;;;;;;;;;;;;;;;;5114563;28;20339;-68
2023/05/19 14:02:30;;;;;;;;;;;;;;;;;;5116198;28;19908;-68
2023/05/19 14:04:56;;;;;;;;;;;;;;;;;;5115884;28;20013;-69
2023/05/19 14:07:22;;;;;;;;;;;;;;;;;;5115271;28;20019;-69
2023/05/19 14:09:49;;;;;;;;;;;;;;;;;;5115663;28;19908;-70
2023/05/19 14:12:15;;;;;;;;;;;;;;;;;;5097350;28;19952;-69
2023/05/19 14:14:42;;;;;;;;;;;;;;;;;;5115117;28;20002;-69
2023/05/19 14:17:08;;;;;;;;;;;;;;;;;;5115364;28;20002;-69
2023/05/19 14:19:34;;;;;;;;;;;;;;;;;;5115138;28;19942;-69
2023/05/19 14:22:00;;;;;;;;;;;;;;;;;;5115389;28;20378;-69
2023/05/19 14:24:26;;;;;;;;;;;;;;;;;;5115425;28;19907;-69
2023/05/19 14:26:52;;;;;;;;;;;;;;;;;;5114913;28;19908;-69
2023/05/19 14:29:18;;;;;;;;;;;;;;;;;;5115294;28;19908;-69
2023/05/19 14:31:44;;;;;;;;;;;;;;;;;;5115197;28;19961;-70
2023/05/19 14:34:10;;;;;;;;;;;;;;;;;;5114684;28;19907;-69
2023/05/19 14:36:36;;;;;;;;;;;;;;;;;;5115109;28;19924;-69
2023/05/19 14:39:02;;;;;;;;;;;;;;;;;;5115303;28;19960;-69
2023/05/19 14:41:28;;;;;;;;;;;;;;;;;;5114621;28;20360;-69
2023/05/19 14:43:54;;;;;;;;;;;;;;;;;;5115005;28;19908;-69
2023/05/19 14:46:20;;;;;;;;;;;;;;;;;;5114956;28;19911;-69
2023/05/19 14:48:46;;;;;;;;;;;;;;;;;;5114495;28;19908;-69
2023/05/19 14:51:12;;;;;;;;;;;;;;;;;;5096579;28;19904;-69
2023/05/19 14:53:38;;;;;;;;;;;;;;;;;;5114786;28;19961;-69
2023/05/19 14:56:03;;;;;;;;;;;;;;;;;;5114309;28;19903;-69
2023/05/19 14:58:29;;;;;;;;;;;;;;;;;;5114652;28;19915;-69
2023/05/19 15:00:55;;;;;;;;;;;;;;;;;;5114704;28;19908;-69
2023/05/19 15:03:22;;;;;;;;;;;;;;;;;;5114348;28;19950;-69
2023/05/19 15:05:48;;;;;;;;;;;;;;;;;;5114620;28;20343;-69
2023/05/19 15:08:14;;;;;;;;;;;;;;;;;;5114614;28;19908;-69
2023/05/19 15:10:40;;;;;;;;;;;;;;;;;;5114352;28;20339;-69
2023/05/19 15:13:06;;;;;;;;;;;;;;;;;;5114253;28;19908;-69
2023/05/19 15:15:32;;;;;;;;;;;;;;;;;;5114521;28;19976;-69
2023/05/19 15:17:57;;;;;;;;;;;;;;;;;;5113940;28;19923;-69
2023/05/19 15:20:23;;;;;;;;;;;;;;;;;;5096133;28;19907;-69
2023/05/19 15:22:49;;;;;;;;;;;;;;;;;;5113879;28;19907;-69
2023/05/19 15:25:15;;;;;;;;;;;;;;;;;;5114282;28;20280;-69
2023/05/19 15:27:41;;;;;;;;;;;;;;;;;;5114304;28;19977;-69
2023/05/19 15:30:07;;;;;;;;;;;;;;;;;;5113933;28;19986;-69
2023/05/19 15:32:33;;;;;;;;;;;;;;;;;;5114298;28;19953;-69
2023/05/19 15:34:59;;;;;;;;;;;;;;;;;;5114742;28;19908;-69
2023/05/19 15:37:25;;;;;;;;;;;;;;;;;;5113601;28;19919;-69
2023/05/19 15:39:51;;;;;;;;;;;;;;;;;;5114324;28;20408;-69
2023/05/19 15:42:17;;;;;;;;;;;;;;;;;;5114186;28;19908;-69
2023/05/19 15:44:45;;;;;;;;;;;;;;;;;;5113716;28;19915;-69
2023/05/19 15:47:10;;;;;;;;;;;;;;;;;;5113952;28;19911;-69
2023/05/19 15:49:36;;;;;;;;;;;;;;;;;;5114329;28;19915;-69
2023/05/19 15:52:02;;;;;;;;;;;;;;;;;;5113792;28;19908;-69
2023/05/19 15:54:28;;;;;;;;;;;;;;;;;;5095829;28;20367;-70
2023/05/19 15:56:54;;;;;;;;;;;;;;;;;;5114072;28;19915;-69
2023/05/19 15:59:20;;;;;;;;;;;;;;;;;;5113626;28;19908;-69
2023/05/19 16:01:46;;;;;;;;;;;;;;;;;;5095649;28;19908;-69
2023/05/19 16:04:12;;;;;;;;;;;;;;;;;;5113887;28;19912;-69
2023/05/19 16:06:38;;;;;;;;;;;;;;;;;;5113483;28;19998;-69
2023/05/19 16:09:04;;;;;;;;;;;;;;;;;;5114159;28;19907;-69
2023/05/19 16:11:30;;;;;;;;;;;;;;;;;;5113744;28;20348;-69
2023/05/19 16:13:56;;;;;;;;;;;;;;;;;;5113464;28;19999;-69
2023/05/19 16:18:28;;;;;;;;;;;;;;;;;;5173677;27;20382;-68
2023/05/19 16:20:54;;;;;;;;;;;;;;;;;;5173084;27;19951;-68
2023/05/19 16:23:20;;;;;;;;;;;;;;;;;;5173585;27;19960;-68
2023/05/19 16:25:46;;;;;;;;;;;;;;;;;;5173537;27;19911;-68
2023/05/19 16:28:28;;;;;;;;;;;;;;;;;;5091956;27;20295;-68
2023/05/19 16:32:37;;;;;;;;;;;;;;;;;;5071830;28;19913;-68
2023/05/19 16:37:53;;;;;;;;;;;;;;;;;;5091915;27;20284;-68
2023/05/19 16:40:19;;;;;;;;;;;;;;;;;;5090813;28;20003;-68
2023/05/19 16:42:45;;;;;;;;;;;;;;;;;;5091237;28;19908;-69
2023/05/19 16:45:11;;;;;;;;;;;;;;;;;;5091290;28;19912;-69
2023/05/19 16:47:37;;;;;;;;;;;;;;;;;;5091059;28;19908;-68
2023/05/19 16:50:34;;;;;;;;;;;;;;;;;;5092044;27;19917;-69
2023/05/19 16:53:00;;;;;;;;;;;;;;;;;;5091332;28;19912;-68
2023/05/19 16:55:26;;;;;;;;;;;;;;;;;;5090713;28;19999;-68
2023/05/19 17:02:32;;;;;;;;;;;;;;;;;;5091289;27;20395;-67
2023/05/19 17:04:58;;;;;;;;;;;;;;;;;;5091378;28;19913;-68
2023/05/19 17:07:26;;;;;;;;;;;;;;;;;;5091134;28;19915;-68
2023/05/19 17:09:52;;;;;;;;;;;;;;;;;;5090790;28;19913;-69
2023/05/19 17:13:46;;;;;;;;;;;;;;;;;;5091199;27;19913;-68
2023/05/19 17:17:05;;;;;;;;;;;;;;;;;;5091068;27;19916;-68
2023/05/19 17:21:41;;;;;;;;;;;;;;;;;;5173868;27;19911;-69
2023/05/19 17:24:42;;;;;;;;;;;;;;;;;;5091559;27;19916;-68
2023/05/19 17:28:46;;;;;;;;;;;;;;;;;;5091946;27;19916;-69
2023/05/19 17:31:12;;;;;;;;;;;;;;;;;;5090962;28;20010;-69
2023/05/19 17:33:38;;;;;;;;;;;;;;;;;;5089946;28;19913;-68
2023/05/19 17:36:04;;;;;;;;;;;;;;;;;;5091413;28;19991;-68
2023/05/19 17:40:57;;;;;;;;;;;;;;;;;;5092076;27;19938;-68
2023/05/19 17:45:26;;;;;;;;;;;;;;;;;;5090864;28;20295;-68
2023/05/19 17:49:18;;;;;;;;;;;;;;;;;;5091307;28;20417;-68
2023/05/19 17:54:39;;;;;;;;;;;;;;;;;;5091619;27;19919;-67
2023/05/19 17:57:05;;;;;;;;;;;;;;;;;;5091316;28;20007;-68
2023/05/19 18:02:05;;;;;;;;;;;;;;;;;;5092121;27;19916;-68
2023/05/19 18:04:31;;;;;;;;;;;;;;;;;;5090926;28;19951;-68
2023/05/19 18:06:57;;;;;;;;;;;;;;;;;;5091153;28;19967;-68
2023/05/19 18:09:23;;;;;;;;;;;;;;;;;;5091187;28;19908;-68
2023/05/19 18:12:26;;;;;;;;;;;;;;;;;;5152535;27;19926;-69
2023/05/19 18:16:59;;;;;;;;;;;;;;;;;;5092133;28;19917;-68
2023/05/19 18:21:12;;;;;;;;;;;;;;;;;;5091833;28;19917;-68
2023/05/19 18:26:48;;;;;;;;;;;;;;;;;;5079437;27;2129976;-68
2023/05/19 18:29:14;;;;;;;;;;;;;;;;;;5152967;27;19911;-68
2023/05/19 18:31:40;;;;;;;;;;;;;;;;;;5152581;27;19907;-68
2023/05/19 18:37:17;;;;;;;;;;;;;;;;;;5173652;27;19923;-68
2023/05/19 18:39:43;;;;;;;;;;;;;;;;;;5173151;27;20392;-69
2023/05/19 18:42:34;;;;;;;;;;;;;;;;;;5091625;27;19912;-70
2023/05/19 18:46:07;;;;;;;;;;;;;;;;;;5152815;27;19922;-70
2023/05/19 18:48:33;;;;;;;;;;;;;;;;;;5152421;27;19911;-70
2023/05/19 18:50:59;;;;;;;;;;;;;;;;;;5152704;27;20332;-70
2023/05/19 18:53:25;;;;;;;;;;;;;;;;;;5153107;27;19907;-70
2023/05/19 18:58:25;;;;;;;;;;;;;;;;;;5173855;27;19911;-70
2023/05/19 19:03:13;;;;;;;;;;;;;;;;;;5153045;27;19915;-68
2023/05/19 19:05:39;;;;;;;;;;;;;;;;;;5152804;27;19934;-68
2023/05/19 19:09:30;;;;;;;;;;;;;;;;;;5090983;27;19916;-68
2023/05/19 19:11:56;;;;;;;;;;;;;;;;;;5091678;28;19948;-68
2023/05/19 19:14:22;;;;;;;;;;;;;;;;;;5091257;28;20364;-68
2023/05/19 19:17:35;;;;;;;;;;;;;;;;;;5091590;27;20296;-69
2023/05/19 19:20:01;;;;;;;;;;;;;;;;;;5091311;28;19995;-67
2023/05/19 19:27:44;;;;;;;;;;;;;;;;;;5091467;27;20273;-69
2023/05/19 19:34:07;;;;;;;;;;;;;;;;;;5150898;27;19922;-68